sensor_id;sensor_type;location;lat;lon;timestamp;P1;durP1;ratioP1;P2;durP2;ratioP2
4957;SDS011;2494;51.872;9.688;2023-02-24T00:00:33;22.93;;;7.50;;
4957;SDS011;2494;51.872;9.688;2023-02-24T00:03:21;18.47;;;8.80;;
4957;SDS011;2494;51.872;9.688;2023-02-24T00:06:06;19.77;;;8.87;;
4957;SDS011;2494;51.872;9.688;2023-02-24T00:08:54;17.63;;;7.37;;
4957;SDS011;2494;51.872;9.688;2023-02-24T00:11:41;19.83;;;8.57;;
4957;SDS011;2494;51.872;9.688;2023-02-24T00:14:28;15.53;;;8.23;;
4957;SDS011;2494;51.872;9.688;2023-02-24T00:17:15;17.27;;;8.17;;
4957;SDS011;2494;51.872;9.688;2023-02-24T00:20:00;17.23;;;7.27;;
4957;SDS011;2494;51.872;9.688;2023-02-24T00:22:48;17.20;;;8.60;;
4957;SDS011;2494;51.872;9.688;2023-02-24T00:25:33;32.20;;;8.63;;
4957;SDS011;2494;51.872;9.688;2023-02-24T00:28:19;12.00;;;7.13;;
4957;SDS011;2494;51.872;9.688;2023-02-24T00:31:04;20.73;;;7.77;;
4957;SDS011;2494;51.872;9.688;2023-02-24T00:33:51;14.50;;;7.67;;
4957;SDS011;2494;51.872;9.688;2023-02-24T00:36:39;13.40;;;7.03;;
4957;SDS011;2494;51.872;9.688;2023-02-24T00:39:25;17.63;;;7.37;;
4957;SDS011;2494;51.872;9.688;2023-02-24T00:42:15;19.00;;;8.33;;
4957;SDS011;2494;51.872;9.688;2023-02-24T00:45:00;18.67;;;8.13;;
4957;SDS011;2494;51.872;9.688;2023-02-24T00:47:52;22.57;;;8.00;;
4957;SDS011;2494;51.872;9.688;2023-02-24T00:50:41;18.00;;;7.40;;
4957;SDS011;2494;51.872;9.688;2023-02-24T00:53:26;23.07;;;6.73;;
4957;SDS011;2494;51.872;9.688;2023-02-24T00:56:12;14.47;;;6.87;;
4957;SDS011;2494;51.872;9.688;2023-02-24T00:58:59;21.87;;;6.23;;
4957;SDS011;2494;51.872;9.688;2023-02-24T01:01:44;16.73;;;5.67;;
4957;SDS011;2494;51.872;9.688;2023-02-24T01:04:32;23.50;;;7.10;;
4957;SDS011;2494;51.872;9.688;2023-02-24T01:07:21;20.43;;;5.37;;
4957;SDS011;2494;51.872;9.688;2023-02-24T01:10:07;19.40;;;6.50;;
4957;SDS011;2494;51.872;9.688;2023-02-24T01:12:55;19.30;;;6.03;;
4957;SDS011;2494;51.872;9.688;2023-02-24T01:15:39;14.90;;;6.07;;
4957;SDS011;2494;51.872;9.688;2023-02-24T01:18:24;28.30;;;7.50;;
4957;SDS011;2494;51.872;9.688;2023-02-24T01:21:10;20.70;;;7.90;;
4957;SDS011;2494;51.872;9.688;2023-02-24T01:23:59;29.73;;;6.80;;
4957;SDS011;2494;51.872;9.688;2023-02-24T01:26:44;19.53;;;5.50;;
4957;SDS011;2494;51.872;9.688;2023-02-24T01:29:29;21.67;;;6.50;;
4957;SDS011;2494;51.872;9.688;2023-02-24T01:32:15;15.03;;;5.90;;
4957;SDS011;2494;51.872;9.688;2023-02-24T01:35:01;22.00;;;4.67;;
4957;SDS011;2494;51.872;9.688;2023-02-24T01:37:46;14.23;;;5.97;;
4957;SDS011;2494;51.872;9.688;2023-02-24T01:40:33;22.50;;;7.80;;
4957;SDS011;2494;51.872;9.688;2023-02-24T01:43:18;32.87;;;6.60;;
4957;SDS011;2494;51.872;9.688;2023-02-24T01:46:04;23.97;;;8.03;;
4957;SDS011;2494;51.872;9.688;2023-02-24T01:48:54;16.00;;;5.93;;
4957;SDS011;2494;51.872;9.688;2023-02-24T01:51:41;19.33;;;4.93;;
4957;SDS011;2494;51.872;9.688;2023-02-24T01:54:29;19.13;;;5.60;;
4957;SDS011;2494;51.872;9.688;2023-02-24T01:57:18;13.93;;;4.83;;
4957;SDS011;2494;51.872;9.688;2023-02-24T02:00:05;23.47;;;5.00;;
4957;SDS011;2494;51.872;9.688;2023-02-24T02:03:18;18.40;;;4.43;;
4957;SDS011;2494;51.872;9.688;2023-02-24T02:06:05;16.17;;;4.57;;
4957;SDS011;2494;51.872;9.688;2023-02-24T02:08:51;13.17;;;3.47;;
4957;SDS011;2494;51.872;9.688;2023-02-24T02:11:37;10.23;;;3.40;;
4957;SDS011;2494;51.872;9.688;2023-02-24T02:14:24;11.43;;;4.07;;
4957;SDS011;2494;51.872;9.688;2023-02-24T02:17:11;18.93;;;3.70;;
4957;SDS011;2494;51.872;9.688;2023-02-24T02:20:17;17.90;;;4.60;;
4957;SDS011;2494;51.872;9.688;2023-02-24T02:23:19;17.67;;;2.80;;
4957;SDS011;2494;51.872;9.688;2023-02-24T02:26:17;12.87;;;3.23;;
4957;SDS011;2494;51.872;9.688;2023-02-24T02:32:16;6.20;;;2.87;;
4957;SDS011;2494;51.872;9.688;2023-02-24T02:35:15;18.50;;;3.50;;
4957;SDS011;2494;51.872;9.688;2023-02-24T02:38:06;17.40;;;2.97;;
4957;SDS011;2494;51.872;9.688;2023-02-24T02:40:58;15.10;;;2.97;;
4957;SDS011;2494;51.872;9.688;2023-02-24T02:43:46;22.30;;;3.50;;
4957;SDS011;2494;51.872;9.688;2023-02-24T02:46:33;18.50;;;3.50;;
4957;SDS011;2494;51.872;9.688;2023-02-24T02:49:21;15.60;;;3.00;;
4957;SDS011;2494;51.872;9.688;2023-02-24T02:52:10;21.77;;;2.57;;
4957;SDS011;2494;51.872;9.688;2023-02-24T02:54:59;13.23;;;4.77;;
4957;SDS011;2494;51.872;9.688;2023-02-24T02:57:45;21.77;;;3.30;;
4957;SDS011;2494;51.872;9.688;2023-02-24T03:00:31;24.43;;;3.73;;
4957;SDS011;2494;51.872;9.688;2023-02-24T03:03:19;19.10;;;3.00;;
4957;SDS011;2494;51.872;9.688;2023-02-24T03:06:05;16.83;;;3.23;;
4957;SDS011;2494;51.872;9.688;2023-02-24T03:08:54;19.27;;;3.70;;
4957;SDS011;2494;51.872;9.688;2023-02-24T03:11:41;14.53;;;3.07;;
4957;SDS011;2494;51.872;9.688;2023-02-24T03:14:30;16.50;;;3.20;;
4957;SDS011;2494;51.872;9.688;2023-02-24T03:17:19;17.37;;;2.50;;
4957;SDS011;2494;51.872;9.688;2023-02-24T03:20:08;17.10;;;3.57;;
4957;SDS011;2494;51.872;9.688;2023-02-24T03:22:58;16.73;;;4.30;;
4957;SDS011;2494;51.872;9.688;2023-02-24T03:25:47;13.50;;;2.47;;
4957;SDS011;2494;51.872;9.688;2023-02-24T03:28:36;12.63;;;3.00;;
4957;SDS011;2494;51.872;9.688;2023-02-24T03:31:24;16.93;;;3.70;;
4957;SDS011;2494;51.872;9.688;2023-02-24T03:34:13;14.40;;;3.37;;
4957;SDS011;2494;51.872;9.688;2023-02-24T03:36:59;21.73;;;3.43;;
4957;SDS011;2494;51.872;9.688;2023-02-24T03:39:45;12.30;;;4.40;;
4957;SDS011;2494;51.872;9.688;2023-02-24T03:42:35;14.13;;;4.10;;
4957;SDS011;2494;51.872;9.688;2023-02-24T03:45:22;13.27;;;3.17;;
4957;SDS011;2494;51.872;9.688;2023-02-24T03:48:10;15.17;;;3.97;;
4957;SDS011;2494;51.872;9.688;2023-02-24T03:50:56;15.90;;;3.90;;
4957;SDS011;2494;51.872;9.688;2023-02-24T03:53:46;14.70;;;4.40;;
4957;SDS011;2494;51.872;9.688;2023-02-24T03:56:41;11.00;;;2.73;;
4957;SDS011;2494;51.872;9.688;2023-02-24T03:59:32;10.90;;;2.63;;
4957;SDS011;2494;51.872;9.688;2023-02-24T04:02:20;15.10;;;3.70;;
4957;SDS011;2494;51.872;9.688;2023-02-24T04:05:07;11.40;;;3.03;;
4957;SDS011;2494;51.872;9.688;2023-02-24T04:07:56;15.77;;;3.33;;
4957;SDS011;2494;51.872;9.688;2023-02-24T04:10:44;23.53;;;3.80;;
4957;SDS011;2494;51.872;9.688;2023-02-24T04:13:36;8.00;;;2.40;;
4957;SDS011;2494;51.872;9.688;2023-02-24T04:16:25;9.83;;;3.07;;
4957;SDS011;2494;51.872;9.688;2023-02-24T04:19:12;16.00;;;3.27;;
4957;SDS011;2494;51.872;9.688;2023-02-24T04:21:59;13.10;;;3.67;;
4957;SDS011;2494;51.872;9.688;2023-02-24T04:24:47;12.80;;;3.80;;
4957;SDS011;2494;51.872;9.688;2023-02-24T04:27:35;17.83;;;3.20;;
4957;SDS011;2494;51.872;9.688;2023-02-24T04:30:20;15.97;;;3.20;;
4957;SDS011;2494;51.872;9.688;2023-02-24T04:33:07;10.17;;;2.90;;
4957;SDS011;2494;51.872;9.688;2023-02-24T04:35:53;16.90;;;2.80;;
4957;SDS011;2494;51.872;9.688;2023-02-24T04:38:38;8.00;;;2.50;;
4957;SDS011;2494;51.872;9.688;2023-02-24T04:41:23;12.83;;;2.33;;
4957;SDS011;2494;51.872;9.688;2023-02-24T04:44:08;18.03;;;3.30;;
4957;SDS011;2494;51.872;9.688;2023-02-24T04:46:53;22.73;;;3.33;;
4957;SDS011;2494;51.872;9.688;2023-02-24T04:49:42;8.53;;;2.40;;
4957;SDS011;2494;51.872;9.688;2023-02-24T04:52:27;14.23;;;3.00;;
4957;SDS011;2494;51.872;9.688;2023-02-24T04:55:13;16.07;;;3.30;;
4957;SDS011;2494;51.872;9.688;2023-02-24T04:58:00;10.23;;;2.60;;
4957;SDS011;2494;51.872;9.688;2023-02-24T05:00:45;16.10;;;3.10;;
4957;SDS011;2494;51.872;9.688;2023-02-24T05:03:31;9.60;;;2.70;;
4957;SDS011;2494;51.872;9.688;2023-02-24T05:06:18;11.87;;;2.80;;
4957;SDS011;2494;51.872;9.688;2023-02-24T05:09:03;9.33;;;2.40;;
4957;SDS011;2494;51.872;9.688;2023-02-24T05:11:56;13.17;;;3.13;;
4957;SDS011;2494;51.872;9.688;2023-02-24T05:14:43;13.63;;;3.80;;
4957;SDS011;2494;51.872;9.688;2023-02-24T05:17:28;17.97;;;4.30;;
4957;SDS011;2494;51.872;9.688;2023-02-24T05:20:14;8.50;;;2.80;;
4957;SDS011;2494;51.872;9.688;2023-02-24T05:23:18;5.90;;;2.67;;
4957;SDS011;2494;51.872;9.688;2023-02-24T05:26:05;7.50;;;2.83;;
4957;SDS011;2494;51.872;9.688;2023-02-24T05:28:52;14.60;;;3.17;;
4957;SDS011;2494;51.872;9.688;2023-02-24T05:31:42;12.80;;;4.43;;
4957;SDS011;2494;51.872;9.688;2023-02-24T05:34:29;17.03;;;3.97;;
4957;SDS011;2494;51.872;9.688;2023-02-24T05:37:14;16.03;;;2.70;;
4957;SDS011;2494;51.872;9.688;2023-02-24T05:40:01;9.83;;;3.30;;
4957;SDS011;2494;51.872;9.688;2023-02-24T05:42:47;10.70;;;2.63;;
4957;SDS011;2494;51.872;9.688;2023-02-24T05:45:34;6.97;;;2.17;;
4957;SDS011;2494;51.872;9.688;2023-02-24T05:48:20;5.50;;;2.27;;
4957;SDS011;2494;51.872;9.688;2023-02-24T05:51:07;11.07;;;3.33;;
4957;SDS011;2494;51.872;9.688;2023-02-24T05:53:55;7.47;;;2.70;;
4957;SDS011;2494;51.872;9.688;2023-02-24T05:56:43;14.87;;;2.47;;
4957;SDS011;2494;51.872;9.688;2023-02-24T05:59:29;10.30;;;3.37;;
4957;SDS011;2494;51.872;9.688;2023-02-24T06:02:17;5.53;;;3.70;;
4957;SDS011;2494;51.872;9.688;2023-02-24T06:05:09;6.10;;;2.33;;
4957;SDS011;2494;51.872;9.688;2023-02-24T06:08:08;7.17;;;2.10;;
4957;SDS011;2494;51.872;9.688;2023-02-24T06:10:54;4.43;;;1.80;;
4957;SDS011;2494;51.872;9.688;2023-02-24T06:13:43;10.90;;;2.43;;
4957;SDS011;2494;51.872;9.688;2023-02-24T06:16:30;6.40;;;2.53;;
4957;SDS011;2494;51.872;9.688;2023-02-24T06:19:15;11.80;;;2.43;;
4957;SDS011;2494;51.872;9.688;2023-02-24T06:22:00;3.43;;;1.93;;
4957;SDS011;2494;51.872;9.688;2023-02-24T06:24:48;4.57;;;2.00;;
4957;SDS011;2494;51.872;9.688;2023-02-24T06:27:33;7.40;;;1.87;;
4957;SDS011;2494;51.872;9.688;2023-02-24T06:30:22;10.70;;;2.63;;
4957;SDS011;2494;51.872;9.688;2023-02-24T06:33:07;9.47;;;3.57;;
4957;SDS011;2494;51.872;9.688;2023-02-24T06:35:53;9.50;;;2.60;;
4957;SDS011;2494;51.872;9.688;2023-02-24T06:38:37;9.53;;;3.67;;
4957;SDS011;2494;51.872;9.688;2023-02-24T06:41:23;5.13;;;2.40;;
4957;SDS011;2494;51.872;9.688;2023-02-24T06:44:12;6.07;;;2.00;;
4957;SDS011;2494;51.872;9.688;2023-02-24T06:46:58;5.20;;;1.50;;
4957;SDS011;2494;51.872;9.688;2023-02-24T06:49:43;6.33;;;1.70;;
4957;SDS011;2494;51.872;9.688;2023-02-24T06:52:28;5.23;;;1.90;;
4957;SDS011;2494;51.872;9.688;2023-02-24T06:55:14;6.00;;;1.67;;
4957;SDS011;2494;51.872;9.688;2023-02-24T06:58:12;4.67;;;1.90;;
4957;SDS011;2494;51.872;9.688;2023-02-24T07:00:59;6.67;;;1.87;;
4957;SDS011;2494;51.872;9.688;2023-02-24T07:03:46;9.70;;;1.90;;
4957;SDS011;2494;51.872;9.688;2023-02-24T07:07:00;7.87;;;1.67;;
4957;SDS011;2494;51.872;9.688;2023-02-24T07:09:45;8.53;;;1.50;;
4957;SDS011;2494;51.872;9.688;2023-02-24T07:12:31;10.73;;;2.23;;
4957;SDS011;2494;51.872;9.688;2023-02-24T07:15:16;5.60;;;1.50;;
4957;SDS011;2494;51.872;9.688;2023-02-24T07:18:02;7.37;;;1.87;;
4957;SDS011;2494;51.872;9.688;2023-02-24T07:20:59;4.37;;;1.43;;
4957;SDS011;2494;51.872;9.688;2023-02-24T07:23:48;3.80;;;1.70;;
4957;SDS011;2494;51.872;9.688;2023-02-24T07:26:34;3.93;;;1.20;;
4957;SDS011;2494;51.872;9.688;2023-02-24T07:29:24;7.93;;;2.77;;
4957;SDS011;2494;51.872;9.688;2023-02-24T07:32:09;6.47;;;1.83;;
4957;SDS011;2494;51.872;9.688;2023-02-24T07:34:55;6.00;;;1.57;;
4957;SDS011;2494;51.872;9.688;2023-02-24T07:37:41;8.53;;;1.80;;
4957;SDS011;2494;51.872;9.688;2023-02-24T07:40:26;6.70;;;2.00;;
4957;SDS011;2494;51.872;9.688;2023-02-24T07:43:12;6.03;;;1.73;;
4957;SDS011;2494;51.872;9.688;2023-02-24T07:46:04;7.47;;;2.70;;
4957;SDS011;2494;51.872;9.688;2023-02-24T07:48:49;7.10;;;2.20;;
4957;SDS011;2494;51.872;9.688;2023-02-24T07:51:35;10.63;;;2.13;;
4957;SDS011;2494;51.872;9.688;2023-02-24T07:54:22;12.03;;;2.03;;
4957;SDS011;2494;51.872;9.688;2023-02-24T07:57:07;5.47;;;2.13;;
4957;SDS011;2494;51.872;9.688;2023-02-24T07:59:55;5.03;;;2.60;;
4957;SDS011;2494;51.872;9.688;2023-02-24T08:02:43;12.83;;;2.63;;
4957;SDS011;2494;51.872;9.688;2023-02-24T08:05:28;8.17;;;2.00;;
4957;SDS011;2494;51.872;9.688;2023-02-24T08:08:13;6.17;;;1.80;;
4957;SDS011;2494;51.872;9.688;2023-02-24T08:11:05;12.70;;;2.20;;
4957;SDS011;2494;51.872;9.688;2023-02-24T08:13:53;5.50;;;1.83;;
4957;SDS011;2494;51.872;9.688;2023-02-24T08:16:40;6.40;;;2.17;;
4957;SDS011;2494;51.872;9.688;2023-02-24T08:19:27;13.47;;;2.87;;
4957;SDS011;2494;51.872;9.688;2023-02-24T08:22:15;7.53;;;2.10;;
4957;SDS011;2494;51.872;9.688;2023-02-24T08:25:03;5.97;;;2.00;;
4957;SDS011;2494;51.872;9.688;2023-02-24T08:27:51;3.60;;;1.90;;
4957;SDS011;2494;51.872;9.688;2023-02-24T08:30:40;8.50;;;1.83;;
4957;SDS011;2494;51.872;9.688;2023-02-24T08:33:27;8.73;;;1.93;;
4957;SDS011;2494;51.872;9.688;2023-02-24T08:36:14;9.90;;;1.87;;
4957;SDS011;2494;51.872;9.688;2023-02-24T08:39:04;6.23;;;1.50;;
4957;SDS011;2494;51.872;9.688;2023-02-24T08:41:49;5.60;;;1.40;;
4957;SDS011;2494;51.872;9.688;2023-02-24T08:44:39;6.50;;;2.20;;
4957;SDS011;2494;51.872;9.688;2023-02-24T08:47:24;6.67;;;1.67;;
4957;SDS011;2494;51.872;9.688;2023-02-24T08:50:13;5.03;;;1.50;;
4957;SDS011;2494;51.872;9.688;2023-02-24T08:52:58;3.60;;;1.43;;
4957;SDS011;2494;51.872;9.688;2023-02-24T08:55:44;6.83;;;2.00;;
4957;SDS011;2494;51.872;9.688;2023-02-24T08:58:29;7.27;;;1.73;;
4957;SDS011;2494;51.872;9.688;2023-02-24T09:01:17;7.90;;;1.50;;
4957;SDS011;2494;51.872;9.688;2023-02-24T09:04:07;3.93;;;1.50;;
4957;SDS011;2494;51.872;9.688;2023-02-24T09:06:53;4.83;;;1.70;;
4957;SDS011;2494;51.872;9.688;2023-02-24T09:09:41;10.20;;;2.10;;
4957;SDS011;2494;51.872;9.688;2023-02-24T09:12:27;5.53;;;1.70;;
4957;SDS011;2494;51.872;9.688;2023-02-24T09:15:13;6.00;;;1.63;;
4957;SDS011;2494;51.872;9.688;2023-02-24T09:18:00;7.40;;;3.13;;
4957;SDS011;2494;51.872;9.688;2023-02-24T09:20:50;5.47;;;2.00;;
4957;SDS011;2494;51.872;9.688;2023-02-24T09:23:59;10.20;;;1.67;;
4957;SDS011;2494;51.872;9.688;2023-02-24T09:26:48;7.83;;;1.50;;
4957;SDS011;2494;51.872;9.688;2023-02-24T09:29:41;8.83;;;2.20;;
4957;SDS011;2494;51.872;9.688;2023-02-24T09:32:31;2.93;;;1.00;;
4957;SDS011;2494;51.872;9.688;2023-02-24T09:35:18;8.93;;;2.10;;
4957;SDS011;2494;51.872;9.688;2023-02-24T09:38:08;4.43;;;1.60;;
4957;SDS011;2494;51.872;9.688;2023-02-24T09:40:53;2.67;;;1.80;;
4957;SDS011;2494;51.872;9.688;2023-02-24T09:43:49;6.60;;;1.40;;
4957;SDS011;2494;51.872;9.688;2023-02-24T09:46:44;3.93;;;1.40;;
4957;SDS011;2494;51.872;9.688;2023-02-24T09:49:40;5.57;;;1.77;;
4957;SDS011;2494;51.872;9.688;2023-02-24T09:52:30;6.27;;;1.60;;
4957;SDS011;2494;51.872;9.688;2023-02-24T09:55:27;7.00;;;2.67;;
4957;SDS011;2494;51.872;9.688;2023-02-24T09:58:19;9.43;;;1.70;;
4957;SDS011;2494;51.872;9.688;2023-02-24T10:01:15;6.07;;;1.80;;
4957;SDS011;2494;51.872;9.688;2023-02-24T10:04:09;8.10;;;3.70;;
4957;SDS011;2494;51.872;9.688;2023-02-24T10:07:02;6.70;;;2.00;;
4957;SDS011;2494;51.872;9.688;2023-02-24T10:09:51;6.20;;;2.40;;
4957;SDS011;2494;51.872;9.688;2023-02-24T10:12:37;8.40;;;2.00;;
4957;SDS011;2494;51.872;9.688;2023-02-24T10:15:24;15.30;;;2.20;;
4957;SDS011;2494;51.872;9.688;2023-02-24T10:18:42;8.33;;;3.00;;
4957;SDS011;2494;51.872;9.688;2023-02-24T10:21:33;5.23;;;2.03;;
4957;SDS011;2494;51.872;9.688;2023-02-24T10:24:33;6.30;;;1.90;;
4957;SDS011;2494;51.872;9.688;2023-02-24T10:27:23;12.53;;;2.40;;
4957;SDS011;2494;51.872;9.688;2023-02-24T10:30:12;5.87;;;1.97;;
4957;SDS011;2494;51.872;9.688;2023-02-24T10:33:10;8.50;;;2.07;;
4957;SDS011;2494;51.872;9.688;2023-02-24T10:36:04;4.63;;;1.80;;
4957;SDS011;2494;51.872;9.688;2023-02-24T10:38:51;7.77;;;2.23;;
4957;SDS011;2494;51.872;9.688;2023-02-24T10:41:42;12.63;;;5.00;;
4957;SDS011;2494;51.872;9.688;2023-02-24T10:44:31;11.77;;;2.80;;
4957;SDS011;2494;51.872;9.688;2023-02-24T10:47:19;7.90;;;2.90;;
4957;SDS011;2494;51.872;9.688;2023-02-24T10:50:20;8.37;;;2.20;;
4957;SDS011;2494;51.872;9.688;2023-02-24T10:53:08;8.17;;;2.30;;
4957;SDS011;2494;51.872;9.688;2023-02-24T10:56:10;5.93;;;2.97;;
4957;SDS011;2494;51.872;9.688;2023-02-24T10:59:10;7.13;;;2.83;;
4957;SDS011;2494;51.872;9.688;2023-02-24T11:02:26;5.10;;;2.10;;
4957;SDS011;2494;51.872;9.688;2023-02-24T11:05:15;16.73;;;3.97;;
4957;SDS011;2494;51.872;9.688;2023-02-24T11:08:20;3.07;;;2.77;;
4957;SDS011;2494;51.872;9.688;2023-02-24T11:11:22;10.53;;;2.40;;
4957;SDS011;2494;51.872;9.688;2023-02-24T11:14:14;6.47;;;2.30;;
4957;SDS011;2494;51.872;9.688;2023-02-24T11:17:19;9.80;;;2.77;;
4957;SDS011;2494;51.872;9.688;2023-02-24T11:20:16;5.00;;;2.40;;
4957;SDS011;2494;51.872;9.688;2023-02-24T11:23:04;4.70;;;2.27;;
4957;SDS011;2494;51.872;9.688;2023-02-24T11:25:51;7.63;;;2.60;;
4957;SDS011;2494;51.872;9.688;2023-02-24T11:28:45;4.30;;;2.63;;
4957;SDS011;2494;51.872;9.688;2023-02-24T11:31:42;5.43;;;3.53;;
4957;SDS011;2494;51.872;9.688;2023-02-24T11:34:30;5.43;;;3.03;;
4957;SDS011;2494;51.872;9.688;2023-02-24T11:37:22;2.87;;;2.67;;
4957;SDS011;2494;51.872;9.688;2023-02-24T11:40:11;5.67;;;2.93;;
4957;SDS011;2494;51.872;9.688;2023-02-24T11:43:00;6.57;;;4.10;;
4957;SDS011;2494;51.872;9.688;2023-02-24T11:45:47;6.67;;;3.70;;
4957;SDS011;2494;51.872;9.688;2023-02-24T11:48:35;5.20;;;3.70;;
4957;SDS011;2494;51.872;9.688;2023-02-24T11:51:21;9.97;;;3.97;;
4957;SDS011;2494;51.872;9.688;2023-02-24T11:54:09;4.40;;;3.50;;
4957;SDS011;2494;51.872;9.688;2023-02-24T11:56:55;6.80;;;4.00;;
4957;SDS011;2494;51.872;9.688;2023-02-24T11:59:42;5.17;;;4.07;;
4957;SDS011;2494;51.872;9.688;2023-02-24T12:02:32;7.90;;;4.30;;
4957;SDS011;2494;51.872;9.688;2023-02-24T12:05:22;5.60;;;4.80;;
4957;SDS011;2494;51.872;9.688;2023-02-24T12:08:10;4.47;;;4.10;;
4957;SDS011;2494;51.872;9.688;2023-02-24T12:11:00;7.03;;;4.30;;
4957;SDS011;2494;51.872;9.688;2023-02-24T12:13:47;5.13;;;4.63;;
4957;SDS011;2494;51.872;9.688;2023-02-24T12:16:36;6.63;;;4.90;;
4957;SDS011;2494;51.872;9.688;2023-02-24T12:19:25;5.30;;;4.83;;
4957;SDS011;2494;51.872;9.688;2023-02-24T12:22:13;5.10;;;4.80;;
4957;SDS011;2494;51.872;9.688;2023-02-24T12:25:01;4.80;;;4.37;;
4957;SDS011;2494;51.872;9.688;2023-02-24T12:27:53;5.13;;;4.83;;
4957;SDS011;2494;51.872;9.688;2023-02-24T12:30:44;5.47;;;4.97;;
4957;SDS011;2494;51.872;9.688;2023-02-24T12:33:37;6.27;;;4.90;;
4957;SDS011;2494;51.872;9.688;2023-02-24T12:36:30;6.00;;;5.17;;
4957;SDS011;2494;51.872;9.688;2023-02-24T12:39:21;7.17;;;6.30;;
4957;SDS011;2494;51.872;9.688;2023-02-24T12:42:12;5.33;;;4.83;;
4957;SDS011;2494;51.872;9.688;2023-02-24T12:45:03;5.60;;;5.07;;
4957;SDS011;2494;51.872;9.688;2023-02-24T12:47:57;6.70;;;5.43;;
4957;SDS011;2494;51.872;9.688;2023-02-24T12:50:48;7.40;;;6.70;;
4957;SDS011;2494;51.872;9.688;2023-02-24T12:53:38;6.40;;;5.80;;
4957;SDS011;2494;51.872;9.688;2023-02-24T12:56:28;11.00;;;6.57;;
4957;SDS011;2494;51.872;9.688;2023-02-24T12:59:16;7.00;;;6.07;;
4957;SDS011;2494;51.872;9.688;2023-02-24T13:02:06;7.10;;;6.40;;
4957;SDS011;2494;51.872;9.688;2023-02-24T13:04:55;6.03;;;5.53;;
4957;SDS011;2494;51.872;9.688;2023-02-24T13:07:47;5.80;;;5.27;;
4957;SDS011;2494;51.872;9.688;2023-02-24T13:10:36;7.20;;;6.47;;
4957;SDS011;2494;51.872;9.688;2023-02-24T13:13:25;5.93;;;5.43;;
4957;SDS011;2494;51.872;9.688;2023-02-24T13:16:13;9.30;;;8.43;;
4957;SDS011;2494;51.872;9.688;2023-02-24T13:19:16;7.03;;;6.40;;
4957;SDS011;2494;51.872;9.688;2023-02-24T13:22:04;9.97;;;9.00;;
4957;SDS011;2494;51.872;9.688;2023-02-24T13:24:58;8.87;;;7.00;;
4957;SDS011;2494;51.872;9.688;2023-02-24T13:27:43;8.00;;;7.23;;
4957;SDS011;2494;51.872;9.688;2023-02-24T13:30:38;13.40;;;9.33;;
4957;SDS011;2494;51.872;9.688;2023-02-24T13:33:27;7.37;;;6.70;;
4957;SDS011;2494;51.872;9.688;2023-02-24T13:36:15;5.60;;;5.20;;
4957;SDS011;2494;51.872;9.688;2023-02-24T13:39:04;6.83;;;6.17;;
4957;SDS011;2494;51.872;9.688;2023-02-24T13:41:59;6.40;;;5.80;;
4957;SDS011;2494;51.872;9.688;2023-02-24T13:44:47;14.00;;;12.63;;
4957;SDS011;2494;51.872;9.688;2023-02-24T13:47:43;7.27;;;5.90;;
4957;SDS011;2494;51.872;9.688;2023-02-24T13:50:31;6.37;;;5.97;;
4957;SDS011;2494;51.872;9.688;2023-02-24T13:56:24;6.40;;;5.80;;
4957;SDS011;2494;51.872;9.688;2023-02-24T14:02:13;7.27;;;6.23;;
4957;SDS011;2494;51.872;9.688;2023-02-24T14:04:58;7.47;;;6.87;;
4957;SDS011;2494;51.872;9.688;2023-02-24T14:07:46;7.03;;;6.00;;
4957;SDS011;2494;51.872;9.688;2023-02-24T14:10:32;10.13;;;6.07;;
4957;SDS011;2494;51.872;9.688;2023-02-24T14:13:22;7.10;;;6.60;;
4957;SDS011;2494;51.872;9.688;2023-02-24T14:16:13;8.03;;;7.30;;
4957;SDS011;2494;51.872;9.688;2023-02-24T14:19:01;6.50;;;6.00;;
4957;SDS011;2494;51.872;9.688;2023-02-24T14:21:48;5.20;;;4.80;;
4957;SDS011;2494;51.872;9.688;2023-02-24T14:24:33;5.37;;;5.07;;
4957;SDS011;2494;51.872;9.688;2023-02-24T14:27:19;5.43;;;5.03;;
4957;SDS011;2494;51.872;9.688;2023-02-24T14:30:19;5.80;;;5.30;;
4957;SDS011;2494;51.872;9.688;2023-02-24T14:33:05;5.37;;;4.97;;
4957;SDS011;2494;51.872;9.688;2023-02-24T14:35:51;15.20;;;11.17;;
4957;SDS011;2494;51.872;9.688;2023-02-24T14:38:37;15.30;;;11.20;;
4957;SDS011;2494;51.872;9.688;2023-02-24T14:41:23;9.73;;;8.73;;
4957;SDS011;2494;51.872;9.688;2023-02-24T14:44:15;6.60;;;6.00;;
4957;SDS011;2494;51.872;9.688;2023-02-24T14:47:03;8.90;;;6.97;;
4957;SDS011;2494;51.872;9.688;2023-02-24T14:49:53;7.17;;;6.53;;
4957;SDS011;2494;51.872;9.688;2023-02-24T14:52:40;7.80;;;6.93;;
4957;SDS011;2494;51.872;9.688;2023-02-24T14:55:27;7.03;;;6.43;;
4957;SDS011;2494;51.872;9.688;2023-02-24T14:58:14;8.20;;;7.60;;
4957;SDS011;2494;51.872;9.688;2023-02-24T15:01:00;8.13;;;7.53;;
4957;SDS011;2494;51.872;9.688;2023-02-24T15:03:49;9.23;;;8.33;;
4957;SDS011;2494;51.872;9.688;2023-02-24T15:06:34;8.37;;;7.67;;
4957;SDS011;2494;51.872;9.688;2023-02-24T15:09:25;10.03;;;8.97;;
4957;SDS011;2494;51.872;9.688;2023-02-24T15:12:17;7.80;;;7.20;;
4957;SDS011;2494;51.872;9.688;2023-02-24T15:15:04;14.73;;;7.87;;
4957;SDS011;2494;51.872;9.688;2023-02-24T15:17:52;11.53;;;10.33;;
4957;SDS011;2494;51.872;9.688;2023-02-24T15:20:39;10.17;;;9.20;;
4957;SDS011;2494;51.872;9.688;2023-02-24T15:23:25;12.40;;;11.20;;
4957;SDS011;2494;51.872;9.688;2023-02-24T15:26:22;11.37;;;10.37;;
4957;SDS011;2494;51.872;9.688;2023-02-24T15:29:11;11.10;;;8.67;;
4957;SDS011;2494;51.872;9.688;2023-02-24T15:31:58;12.53;;;10.90;;
4957;SDS011;2494;51.872;9.688;2023-02-24T15:34:44;15.63;;;10.50;;
4957;SDS011;2494;51.872;9.688;2023-02-24T15:37:36;13.83;;;12.33;;
4957;SDS011;2494;51.872;9.688;2023-02-24T15:40:24;15.63;;;12.53;;
4957;SDS011;2494;51.872;9.688;2023-02-24T15:43:09;15.87;;;12.63;;
4957;SDS011;2494;51.872;9.688;2023-02-24T15:45:55;16.40;;;12.93;;
4957;SDS011;2494;51.872;9.688;2023-02-24T15:48:41;19.80;;;15.57;;
4957;SDS011;2494;51.872;9.688;2023-02-24T15:51:29;23.23;;;13.77;;
4957;SDS011;2494;51.872;9.688;2023-02-24T15:54:17;22.37;;;14.17;;
4957;SDS011;2494;51.872;9.688;2023-02-24T15:57:03;17.03;;;13.60;;
4957;SDS011;2494;51.872;9.688;2023-02-24T15:59:49;20.33;;;14.63;;
4957;SDS011;2494;51.872;9.688;2023-02-24T16:02:33;19.63;;;14.87;;
4957;SDS011;2494;51.872;9.688;2023-02-24T16:05:20;14.63;;;13.13;;
4957;SDS011;2494;51.872;9.688;2023-02-24T16:08:08;18.93;;;13.33;;
4957;SDS011;2494;51.872;9.688;2023-02-24T16:10:55;20.80;;;14.10;;
4957;SDS011;2494;51.872;9.688;2023-02-24T16:13:40;19.40;;;15.57;;
4957;SDS011;2494;51.872;9.688;2023-02-24T16:16:27;17.83;;;13.97;;
4957;SDS011;2494;51.872;9.688;2023-02-24T16:19:12;19.33;;;15.13;;
4957;SDS011;2494;51.872;9.688;2023-02-24T16:21:58;18.07;;;14.77;;
4957;SDS011;2494;51.872;9.688;2023-02-24T16:24:43;22.93;;;15.07;;
4957;SDS011;2494;51.872;9.688;2023-02-24T16:27:29;24.90;;;18.20;;
4957;SDS011;2494;51.872;9.688;2023-02-24T16:30:15;24.60;;;15.80;;
4957;SDS011;2494;51.872;9.688;2023-02-24T16:33:01;23.60;;;17.40;;
4957;SDS011;2494;51.872;9.688;2023-02-24T16:35:46;21.90;;;17.40;;
4957;SDS011;2494;51.872;9.688;2023-02-24T16:38:32;26.27;;;17.77;;
4957;SDS011;2494;51.872;9.688;2023-02-24T16:41:18;24.20;;;18.30;;
4957;SDS011;2494;51.872;9.688;2023-02-24T16:44:04;24.87;;;18.10;;
4957;SDS011;2494;51.872;9.688;2023-02-24T16:46:50;21.00;;;16.60;;
4957;SDS011;2494;51.872;9.688;2023-02-24T16:49:36;19.87;;;16.03;;
4957;SDS011;2494;51.872;9.688;2023-02-24T16:52:21;27.40;;;19.47;;
4957;SDS011;2494;51.872;9.688;2023-02-24T16:55:09;26.10;;;18.53;;
4957;SDS011;2494;51.872;9.688;2023-02-24T16:57:54;23.73;;;18.47;;
4957;SDS011;2494;51.872;9.688;2023-02-24T17:00:41;24.63;;;19.10;;
4957;SDS011;2494;51.872;9.688;2023-02-24T17:03:28;25.43;;;18.50;;
4957;SDS011;2494;51.872;9.688;2023-02-24T17:06:13;26.63;;;17.90;;
4957;SDS011;2494;51.872;9.688;2023-02-24T17:08:58;22.40;;;17.83;;
4957;SDS011;2494;51.872;9.688;2023-02-24T17:11:44;25.20;;;18.53;;
4957;SDS011;2494;51.872;9.688;2023-02-24T17:14:29;27.63;;;17.83;;
4957;SDS011;2494;51.872;9.688;2023-02-24T17:17:16;32.60;;;19.73;;
4957;SDS011;2494;51.872;9.688;2023-02-24T17:20:02;26.20;;;18.10;;
4957;SDS011;2494;51.872;9.688;2023-02-24T17:22:48;26.17;;;18.90;;
4957;SDS011;2494;51.872;9.688;2023-02-24T17:25:33;28.77;;;19.80;;
4957;SDS011;2494;51.872;9.688;2023-02-24T17:28:22;24.83;;;18.80;;